Arpin, Wisconsin
Current Conditions -  °F | °C
As of 2:54 PM on Friday 28 Nov 2014 (Local Time) from KMFI Reporting Station
Overcast Overcast  
Wind Chill: -11°   Ceiling: 6000
Heat Index: -6°   Visibility: 10mi
Dew Point: -10°   Wind: 8mph
Humidity: 74%   Direction: 140°SE
Pressure: 29.9"   Gusts: NA
Location:  44.54°N, 90.04°W
Report Text: KMFI 282054Z AUTO 14007KT 10SM SCT019 BKN060 OVC100 M06/M10 A2990 RMK AO2 SLP150 T10611100 57024
Loading
Personal Weather Stations






























Interactive Weather Map New forecast layout! Learn more

10-Day Weather Forecast

Advertisements
Track Severe Weather on mobile